sensor_id;sensor_type;location;lat;lon;timestamp;pressure;altitude;pressure_sealevel;temperature;humidity
54556;BME280;57291;37.520;15.106;2023-03-01T00:01:19;100905.31;;;12.72;99.95
54556;BME280;57291;37.520;15.106;2023-03-01T00:03:47;100905.91;;;12.68;99.48
54556;BME280;57291;37.520;15.106;2023-03-01T00:06:14;100912.78;;;12.66;99.51
54556;BME280;57291;37.520;15.106;2023-03-01T00:08:42;100902.47;;;12.63;99.49
54556;BME280;57291;37.520;15.106;2023-03-01T00:11:24;100891.56;;;12.63;98.96
54556;BME280;57291;37.520;15.106;2023-03-01T00:13:54;100903.09;;;12.60;98.87
54556;BME280;57291;37.520;15.106;2023-03-01T00:16:30;100901.47;;;12.59;98.92
54556;BME280;57291;37.520;15.106;2023-03-01T00:18:58;100886.72;;;12.60;98.20
54556;BME280;57291;37.520;15.106;2023-03-01T00:21:26;100888.34;;;12.61;98.20
54556;BME280;57291;37.520;15.106;2023-03-01T00:23:54;100880.47;;;12.59;98.03
54556;BME280;57291;37.520;15.106;2023-03-01T00:26:23;100891.38;;;12.59;98.02
54556;BME280;57291;37.520;15.106;2023-03-01T00:28:51;100892.19;;;12.60;97.59
54556;BME280;57291;37.520;15.106;2023-03-01T00:31:22;100885.63;;;12.61;97.21
54556;BME280;57291;37.520;15.106;2023-03-01T00:33:54;100885.63;;;12.61;97.22
54556;BME280;57291;37.520;15.106;2023-03-01T00:36:27;100880.47;;;12.59;97.41
54556;BME280;57291;37.520;15.106;2023-03-01T00:38:56;100884.31;;;12.58;97.41
54556;BME280;57291;37.520;15.106;2023-03-01T00:41:23;100869.38;;;12.56;97.78
54556;BME280;57291;37.520;15.106;2023-03-01T00:43:54;100865.66;;;12.52;97.86
54556;BME280;57291;37.520;15.106;2023-03-01T00:46:24;100855.03;;;12.50;98.39
54556;BME280;57291;37.520;15.106;2023-03-01T00:48:51;100862.13;;;12.51;98.85
54556;BME280;57291;37.520;15.106;2023-03-01T00:51:25;100849.56;;;12.50;99.00
54556;BME280;57291;37.520;15.106;2023-03-01T00:53:55;100853.44;;;12.49;99.26
54556;BME280;57291;37.520;15.106;2023-03-01T00:56:24;100855.44;;;12.43;98.83
54556;BME280;57291;37.520;15.106;2023-03-01T00:58:51;100848.38;;;12.42;98.82
54556;BME280;57291;37.520;15.106;2023-03-01T01:01:21;100836.47;;;12.38;98.33
54556;BME280;57291;37.520;15.106;2023-03-01T01:06:19;100842.81;;;12.34;97.92
54556;BME280;57291;37.520;15.106;2023-03-01T01:08:47;100842.34;;;12.32;97.29
54556;BME280;57291;37.520;15.106;2023-03-01T01:11:15;100840.41;;;12.32;96.49
54556;BME280;57291;37.520;15.106;2023-03-01T01:13:44;100852.94;;;12.33;96.29
54556;BME280;57291;37.520;15.106;2023-03-01T01:16:13;100844.75;;;12.33;95.10
54556;BME280;57291;37.520;15.106;2023-03-01T01:18:41;100838.00;;;12.31;95.34
54556;BME280;57291;37.520;15.106;2023-03-01T01:21:10;100844.06;;;12.28;95.32
54556;BME280;57291;37.520;15.106;2023-03-01T01:23:39;100849.53;;;12.28;95.10
54556;BME280;57291;37.520;15.106;2023-03-01T01:26:08;100857.69;;;12.28;95.29
54556;BME280;57291;37.520;15.106;2023-03-01T01:28:36;100860.41;;;12.28;95.87
54556;BME280;57291;37.520;15.106;2023-03-01T01:31:04;100854.25;;;12.22;96.26
54556;BME280;57291;37.520;15.106;2023-03-01T01:33:32;100854.34;;;12.17;96.68
54556;BME280;57291;37.520;15.106;2023-03-01T01:35:59;100849.63;;;12.09;96.71
54556;BME280;57291;37.520;15.106;2023-03-01T01:38:27;100858.66;;;12.04;96.20
54556;BME280;57291;37.520;15.106;2023-03-01T01:40:54;100857.47;;;11.96;95.52
54556;BME280;57291;37.520;15.106;2023-03-01T01:43:22;100859.19;;;11.92;93.99
54556;BME280;57291;37.520;15.106;2023-03-01T01:45:52;100855.72;;;11.87;93.70
54556;BME280;57291;37.520;15.106;2023-03-01T01:48:24;100851.78;;;11.79;93.25
54556;BME280;57291;37.520;15.106;2023-03-01T01:51:11;100854.56;;;11.74;92.45
54556;BME280;57291;37.520;15.106;2023-03-01T01:53:40;100850.84;;;11.70;91.83
54556;BME280;57291;37.520;15.106;2023-03-01T01:56:11;100843.28;;;11.67;91.23
54556;BME280;57291;37.520;15.106;2023-03-01T01:58:41;100833.78;;;11.64;90.30
54556;BME280;57291;37.520;15.106;2023-03-01T02:01:10;100834.09;;;11.63;90.25
54556;BME280;57291;37.520;15.106;2023-03-01T02:03:39;100830.84;;;11.61;88.60
54556;BME280;57291;37.520;15.106;2023-03-01T02:08:41;100835.69;;;11.64;83.45
54556;BME280;57291;37.520;15.106;2023-03-01T02:11:10;100834.28;;;11.66;80.80
54556;BME280;57291;37.520;15.106;2023-03-01T02:13:41;100836.22;;;11.66;79.88
54556;BME280;57291;37.520;15.106;2023-03-01T02:16:11;100835.41;;;11.65;78.46
54556;BME280;57291;37.520;15.106;2023-03-01T02:18:41;100843.06;;;11.63;77.84
54556;BME280;57291;37.520;15.106;2023-03-01T02:23:48;100852.03;;;11.64;75.78
54556;BME280;57291;37.520;15.106;2023-03-01T02:29:01;100840.94;;;11.60;75.28
54556;BME280;57291;37.520;15.106;2023-03-01T02:31:29;100844.25;;;11.57;75.03
54556;BME280;57291;37.520;15.106;2023-03-01T02:34:16;100847.06;;;11.52;74.81
54556;BME280;57291;37.520;15.106;2023-03-01T02:36:49;100856.44;;;11.46;75.26
54556;BME280;57291;37.520;15.106;2023-03-01T02:39:21;100855.91;;;11.44;75.51
54556;BME280;57291;37.520;15.106;2023-03-01T02:41:53;100860.13;;;11.36;75.15
54556;BME280;57291;37.520;15.106;2023-03-01T02:44:21;100864.56;;;11.32;75.60
54556;BME280;57291;37.520;15.106;2023-03-01T02:46:55;100864.56;;;11.32;74.66
54556;BME280;57291;37.520;15.106;2023-03-01T02:49:28;100863.72;;;11.32;74.76
54556;BME280;57291;37.520;15.106;2023-03-01T02:54:46;100864.69;;;11.22;74.46
54556;BME280;57291;37.520;15.106;2023-03-01T02:57:15;100869.41;;;11.16;74.38
54556;BME280;57291;37.520;15.106;2023-03-01T02:59:43;100882.81;;;11.13;74.89
54556;BME280;57291;37.520;15.106;2023-03-01T03:02:26;100867.34;;;11.08;75.24
54556;BME280;57291;37.520;15.106;2023-03-01T03:05:22;100873.16;;;11.01;75.52
54556;BME280;57291;37.520;15.106;2023-03-01T03:07:53;100874.06;;;10.97;75.45
54556;BME280;57291;37.520;15.106;2023-03-01T03:10:29;100865.16;;;10.91;75.42
54556;BME280;57291;37.520;15.106;2023-03-01T03:13:00;100859.81;;;10.86;75.83
54556;BME280;57291;37.520;15.106;2023-03-01T03:15:28;100846.28;;;10.81;75.87
54556;BME280;57291;37.520;15.106;2023-03-01T03:17:57;100858.25;;;10.80;75.79
54556;BME280;57291;37.520;15.106;2023-03-01T03:20:27;100852.06;;;10.74;75.92
54556;BME280;57291;37.520;15.106;2023-03-01T03:22:56;100851.84;;;10.71;76.37
54556;BME280;57291;37.520;15.106;2023-03-01T03:25:26;100856.75;;;10.69;76.52
54556;BME280;57291;37.520;15.106;2023-03-01T03:27:55;100853.59;;;10.62;76.88
54556;BME280;57291;37.520;15.106;2023-03-01T03:30:28;100852.78;;;10.61;77.10
54556;BME280;57291;37.520;15.106;2023-03-01T03:32:58;100850.06;;;10.61;77.09
54556;BME280;57291;37.520;15.106;2023-03-01T03:35:28;100856.63;;;10.60;77.35
54556;BME280;57291;37.520;15.106;2023-03-01T03:37:58;100861.31;;;10.54;77.50
54556;BME280;57291;37.520;15.106;2023-03-01T03:40:41;100864.59;;;10.51;77.97
54556;BME280;57291;37.520;15.106;2023-03-01T03:43:11;100868.19;;;10.47;77.97
54556;BME280;57291;37.520;15.106;2023-03-01T03:45:39;100866.88;;;10.44;78.28
54556;BME280;57291;37.520;15.106;2023-03-01T03:48:08;100870.69;;;10.43;78.51
54556;BME280;57291;37.520;15.106;2023-03-01T03:50:40;100868.25;;;10.42;78.71
54556;BME280;57291;37.520;15.106;2023-03-01T03:53:12;100866.91;;;10.39;78.14
54556;BME280;57291;37.520;15.106;2023-03-01T03:55:40;100874.25;;;10.39;78.58
54556;BME280;57291;37.520;15.106;2023-03-01T03:58:08;100868.84;;;10.39;78.56
54556;BME280;57291;37.520;15.106;2023-03-01T04:00:41;100871.28;;;10.40;78.13
54556;BME280;57291;37.520;15.106;2023-03-01T04:03:09;100880.50;;;10.39;77.93
54556;BME280;57291;37.520;15.106;2023-03-01T04:05:37;100869.63;;;10.39;77.87
54556;BME280;57291;37.520;15.106;2023-03-01T04:08:05;100866.41;;;10.37;77.66
54556;BME280;57291;37.520;15.106;2023-03-01T04:11:00;100866.41;;;10.37;77.73
54556;BME280;57291;37.520;15.106;2023-03-01T04:13:47;100869.19;;;10.32;77.81
54556;BME280;57291;37.520;15.106;2023-03-01T04:16:15;100868.97;;;10.28;78.13
54556;BME280;57291;37.520;15.106;2023-03-01T04:18:42;100877.94;;;10.24;78.37
54556;BME280;57291;37.520;15.106;2023-03-01T04:21:09;100880.38;;;10.25;78.58
54556;BME280;57291;37.520;15.106;2023-03-01T04:23:38;100871.13;;;10.26;77.96
54556;BME280;57291;37.520;15.106;2023-03-01T04:26:05;100871.41;;;10.25;78.17
54556;BME280;57291;37.520;15.106;2023-03-01T04:28:35;100885.00;;;10.25;77.73
54556;BME280;57291;37.520;15.106;2023-03-01T04:31:11;100883.66;;;10.22;77.71
54556;BME280;57291;37.520;15.106;2023-03-01T04:33:54;100880.19;;;10.17;77.52
54556;BME280;57291;37.520;15.106;2023-03-01T04:36:24;100890.00;;;10.13;77.37
54556;BME280;57291;37.520;15.106;2023-03-01T04:38:52;100887.81;;;10.15;77.40
54556;BME280;57291;37.520;15.106;2023-03-01T04:41:22;100887.28;;;10.13;77.68
54556;BME280;57291;37.520;15.106;2023-03-01T04:43:49;100882.44;;;10.09;77.65
54556;BME280;57291;37.520;15.106;2023-03-01T04:46:19;100887.94;;;10.04;77.97
54556;BME280;57291;37.520;15.106;2023-03-01T04:48:46;100888.75;;;10.05;77.65
54556;BME280;57291;37.520;15.106;2023-03-01T04:51:14;100883.66;;;9.98;77.68
54556;BME280;57291;37.520;15.106;2023-03-01T04:53:43;100882.63;;;9.94;77.31
54556;BME280;57291;37.520;15.106;2023-03-01T04:56:11;100886.41;;;9.93;77.61
54556;BME280;57291;37.520;15.106;2023-03-01T04:58:41;100879.13;;;9.89;77.69
54556;BME280;57291;37.520;15.106;2023-03-01T05:01:14;100883.22;;;9.86;77.88
54556;BME280;57291;37.520;15.106;2023-03-01T05:03:50;100882.66;;;9.89;77.22
54556;BME280;57291;37.520;15.106;2023-03-01T05:06:18;100883.75;;;9.88;76.94
54556;BME280;57291;37.520;15.106;2023-03-01T05:08:45;100884.03;;;9.86;76.88
54556;BME280;57291;37.520;15.106;2023-03-01T05:11:12;100878.31;;;9.88;76.96
54556;BME280;57291;37.520;15.106;2023-03-01T05:13:40;100881.03;;;9.88;76.90
54556;BME280;57291;37.520;15.106;2023-03-01T05:16:08;100879.13;;;9.89;76.60
54556;BME280;57291;37.520;15.106;2023-03-01T05:18:40;100886.75;;;9.86;76.05
54556;BME280;57291;37.520;15.106;2023-03-01T05:21:12;100885.13;;;9.85;75.93
54556;BME280;57291;37.520;15.106;2023-03-01T05:23:43;100885.13;;;9.85;76.12
54556;BME280;57291;37.520;15.106;2023-03-01T05:26:10;100890.84;;;9.84;76.20
54556;BME280;57291;37.520;15.106;2023-03-01T05:28:59;100885.69;;;9.82;75.90
54556;BME280;57291;37.520;15.106;2023-03-01T05:31:27;100888.16;;;9.84;74.56
54556;BME280;57291;37.520;15.106;2023-03-01T05:33:54;100887.06;;;9.80;73.90
54556;BME280;57291;37.520;15.106;2023-03-01T05:36:21;100888.19;;;9.79;73.96
54556;BME280;57291;37.520;15.106;2023-03-01T05:38:48;100884.09;;;9.81;73.04
54556;BME280;57291;37.520;15.106;2023-03-01T05:41:15;100877.84;;;9.81;72.37
54556;BME280;57291;37.520;15.106;2023-03-01T05:43:43;100876.75;;;9.82;72.07
54556;BME280;57291;37.520;15.106;2023-03-01T05:46:12;100879.16;;;9.83;72.36
54556;BME280;57291;37.520;15.106;2023-03-01T05:48:40;100885.13;;;9.85;71.60
54556;BME280;57291;37.520;15.106;2023-03-01T05:51:07;100881.31;;;9.86;69.94
54556;BME280;57291;37.520;15.106;2023-03-01T05:53:34;100880.00;;;9.84;69.91
54556;BME280;57291;37.520;15.106;2023-03-01T05:56:05;100880.50;;;9.86;69.73
54556;BME280;57291;37.520;15.106;2023-03-01T05:58:32;100886.47;;;9.88;68.83
54556;BME280;57291;37.520;15.106;2023-03-01T06:01:00;100892.94;;;9.92;68.72
54556;BME280;57291;37.520;15.106;2023-03-01T06:03:28;100900.50;;;9.95;64.51
54556;BME280;57291;37.520;15.106;2023-03-01T06:05:56;100898.00;;;10.04;63.84
54556;BME280;57291;37.520;15.106;2023-03-01T06:08:23;100897.59;;;10.16;62.19
54556;BME280;57291;37.520;15.106;2023-03-01T06:10:53;100904.56;;;10.27;59.50
54556;BME280;57291;37.520;15.106;2023-03-01T06:13:21;100900.09;;;10.36;59.05
54556;BME280;57291;37.520;15.106;2023-03-01T06:15:49;100896.41;;;10.51;58.02
54556;BME280;57291;37.520;15.106;2023-03-01T06:18:16;100897.03;;;10.67;57.79
54556;BME280;57291;37.520;15.106;2023-03-01T06:20:43;100903.94;;;10.78;57.83
54556;BME280;57291;37.520;15.106;2023-03-01T06:23:10;100891.59;;;10.86;58.03
54556;BME280;57291;37.520;15.106;2023-03-01T06:25:37;100910.78;;;10.94;58.30
54556;BME280;57291;37.520;15.106;2023-03-01T06:28:04;100917.78;;;11.00;57.85
54556;BME280;57291;37.520;15.106;2023-03-01T06:30:31;100920.13;;;11.07;58.36
54556;BME280;57291;37.520;15.106;2023-03-01T06:32:58;100921.09;;;11.16;58.42
54556;BME280;57291;37.520;15.106;2023-03-01T06:35:30;100926.66;;;11.25;58.96
54556;BME280;57291;37.520;15.106;2023-03-01T06:38:00;100937.13;;;11.37;59.97
54556;BME280;57291;37.520;15.106;2023-03-01T06:40:28;100937.28;;;11.45;60.97
54556;BME280;57291;37.520;15.106;2023-03-01T06:42:55;100932.38;;;11.61;62.02
54556;BME280;57291;37.520;15.106;2023-03-01T06:45:22;100932.66;;;11.79;62.91
54556;BME280;57291;37.520;15.106;2023-03-01T06:47:50;100937.19;;;12.16;62.88
54556;BME280;57291;37.520;15.106;2023-03-01T06:50:18;100943.69;;;12.61;62.02
54556;BME280;57291;37.520;15.106;2023-03-01T06:52:45;100943.84;;;13.06;60.73
54556;BME280;57291;37.520;15.106;2023-03-01T06:55:15;100941.38;;;13.55;59.50
54556;BME280;57291;37.520;15.106;2023-03-01T06:57:42;100946.06;;;14.39;56.62
54556;BME280;57291;37.520;15.106;2023-03-01T07:00:10;100949.63;;;14.71;55.08
54556;BME280;57291;37.520;15.106;2023-03-01T07:02:37;100950.91;;;14.82;53.29
54556;BME280;57291;37.520;15.106;2023-03-01T07:05:05;100954.31;;;14.96;51.23
54556;BME280;57291;37.520;15.106;2023-03-01T07:07:32;100958.16;;;14.78;50.32
54556;BME280;57291;37.520;15.106;2023-03-01T07:09:59;100954.53;;;14.51;51.11
54556;BME280;57291;37.520;15.106;2023-03-01T07:12:27;100956.44;;;14.51;51.14
54556;BME280;57291;37.520;15.106;2023-03-01T07:14:54;100968.06;;;14.25;52.07
54556;BME280;57291;37.520;15.106;2023-03-01T07:17:21;100965.75;;;14.19;54.18
54556;BME280;57291;37.520;15.106;2023-03-01T07:19:48;100969.09;;;14.47;54.22
54556;BME280;57291;37.520;15.106;2023-03-01T07:22:15;100970.44;;;14.98;52.60
54556;BME280;57291;37.520;15.106;2023-03-01T07:24:43;100965.50;;;15.35;51.41
54556;BME280;57291;37.520;15.106;2023-03-01T07:27:10;100971.91;;;15.56;50.75
54556;BME280;57291;37.520;15.106;2023-03-01T07:29:37;100977.25;;;15.53;50.89
54556;BME280;57291;37.520;15.106;2023-03-01T07:32:05;100976.75;;;15.24;50.33
54556;BME280;57291;37.520;15.106;2023-03-01T07:34:33;100971.13;;;15.21;50.60
54556;BME280;57291;37.520;15.106;2023-03-01T07:37:00;100975.31;;;15.44;50.01
54556;BME280;57291;37.520;15.106;2023-03-01T07:39:27;100986.44;;;15.48;47.81
54556;BME280;57291;37.520;15.106;2023-03-01T07:41:54;100978.84;;;15.28;47.46
54556;BME280;57291;37.520;15.106;2023-03-01T07:44:21;100982.66;;;14.92;48.22
54556;BME280;57291;37.520;15.106;2023-03-01T07:46:49;100975.78;;;14.63;48.10
54556;BME280;57291;37.520;15.106;2023-03-01T07:49:16;100982.31;;;14.45;47.65
54556;BME280;57291;37.520;15.106;2023-03-01T07:51:43;100982.19;;;14.27;47.90
54556;BME280;57291;37.520;15.106;2023-03-01T07:54:10;100989.69;;;14.13;48.61
54556;BME280;57291;37.520;15.106;2023-03-01T07:56:37;100988.06;;;14.12;48.76
54556;BME280;57291;37.520;15.106;2023-03-01T07:59:04;100982.88;;;14.02;48.83
54556;BME280;57291;37.520;15.106;2023-03-01T08:01:31;100985.66;;;13.88;48.76
54556;BME280;57291;37.520;15.106;2023-03-01T08:03:59;100989.94;;;13.80;48.87
54556;BME280;57291;37.520;15.106;2023-03-01T08:06:26;100982.72;;;13.62;47.73
54556;BME280;57291;37.520;15.106;2023-03-01T08:08:53;100990.06;;;13.53;47.35
54556;BME280;57291;37.520;15.106;2023-03-01T08:11:22;100987.06;;;13.41;47.22
54556;BME280;57291;37.520;15.106;2023-03-01T08:13:52;100982.31;;;13.32;46.96
54556;BME280;57291;37.520;15.106;2023-03-01T08:16:20;100989.88;;;13.35;46.32
54556;BME280;57291;37.520;15.106;2023-03-01T08:18:47;100993.44;;;13.36;46.15
54556;BME280;57291;37.520;15.106;2023-03-01T08:21:17;100991.91;;;13.44;45.40
54556;BME280;57291;37.520;15.106;2023-03-01T08:23:45;100981.09;;;13.38;44.97
54556;BME280;57291;37.520;15.106;2023-03-01T08:26:18;100977.13;;;13.45;44.78
54556;BME280;57291;37.520;15.106;2023-03-01T08:28:47;100978.19;;;13.57;44.26
54556;BME280;57291;37.520;15.106;2023-03-01T08:31:21;100987.13;;;13.72;43.94
54556;BME280;57291;37.520;15.106;2023-03-01T08:33:51;100984.81;;;13.79;43.47
54556;BME280;57291;37.520;15.106;2023-03-01T08:36:23;100981.50;;;13.91;42.68
54556;BME280;57291;37.520;15.106;2023-03-01T08:38:51;100981.94;;;13.84;43.22
54556;BME280;57291;37.520;15.106;2023-03-01T08:41:19;100981.13;;;13.83;43.44
54556;BME280;57291;37.520;15.106;2023-03-01T08:43:46;100981.13;;;13.83;43.39
54556;BME280;57291;37.520;15.106;2023-03-01T08:46:14;100983.97;;;13.78;42.85
54556;BME280;57291;37.520;15.106;2023-03-01T08:48:41;100987.31;;;13.75;41.33
54556;BME280;57291;37.520;15.106;2023-03-01T08:51:17;100986.59;;;13.83;42.36
54556;BME280;57291;37.520;15.106;2023-03-01T08:53:45;100989.44;;;14.01;42.49
54556;BME280;57291;37.520;15.106;2023-03-01T08:56:13;100997.53;;;14.06;42.62
54556;BME280;57291;37.520;15.106;2023-03-01T08:58:46;100992.66;;;14.25;41.99
54556;BME280;57291;37.520;15.106;2023-03-01T09:01:16;101004.44;;;14.35;42.06
54556;BME280;57291;37.520;15.106;2023-03-01T09:03:44;101005.13;;;14.18;41.86
54556;BME280;57291;37.520;15.106;2023-03-01T09:06:11;100998.94;;;14.26;42.36
54556;BME280;57291;37.520;15.106;2023-03-01T09:08:41;101008.91;;;14.30;41.92
54556;BME280;57291;37.520;15.106;2023-03-01T09:11:11;101007.75;;;14.23;40.49
54556;BME280;57291;37.520;15.106;2023-03-01T09:13:39;101014.47;;;14.17;40.15
54556;BME280;57291;37.520;15.106;2023-03-01T09:16:11;101017.25;;;14.25;39.99
54556;BME280;57291;37.520;15.106;2023-03-01T09:18:39;101017.53;;;14.46;39.98
54556;BME280;57291;37.520;15.106;2023-03-01T09:21:09;101009.81;;;14.48;37.71
54556;BME280;57291;37.520;15.106;2023-03-01T09:23:41;101013.06;;;14.50;38.66
54556;BME280;57291;37.520;15.106;2023-03-01T09:26:11;101004.66;;;14.47;36.92
54556;BME280;57291;37.520;15.106;2023-03-01T09:28:39;101005.34;;;14.52;36.06
54556;BME280;57291;37.520;15.106;2023-03-01T09:31:08;101002.28;;;14.54;35.66
54556;BME280;57291;37.520;15.106;2023-03-01T09:33:35;101011.25;;;14.77;34.97
54556;BME280;57291;37.520;15.106;2023-03-01T09:36:05;101012.13;;;14.95;35.02
54556;BME280;57291;37.520;15.106;2023-03-01T09:38:32;101012.41;;;14.85;32.70
54556;BME280;57291;37.520;15.106;2023-03-01T09:41:00;101014.34;;;14.84;32.73
54556;BME280;57291;37.520;15.106;2023-03-01T09:43:32;101021.38;;;14.76;31.99
54556;BME280;57291;37.520;15.106;2023-03-01T09:46:09;101018.53;;;14.90;31.38
54556;BME280;57291;37.520;15.106;2023-03-01T09:48:42;101027.63;;;15.08;31.36
54556;BME280;57291;37.520;15.106;2023-03-01T09:51:17;101028.78;;;15.33;30.96
54556;BME280;57291;37.520;15.106;2023-03-01T09:53:45;101019.31;;;15.48;30.15
54556;BME280;57291;37.520;15.106;2023-03-01T09:56:33;101020.91;;;15.40;29.72
54556;BME280;57291;37.520;15.106;2023-03-01T10:02:28;101015.63;;;15.87;29.03
54556;BME280;57291;37.520;15.106;2023-03-01T10:05:27;101015.00;;;15.90;29.37
54556;BME280;57291;37.520;15.106;2023-03-01T10:08:58;101007.50;;;16.26;29.42
54556;BME280;57291;37.520;15.106;2023-03-01T10:11:23;101007.81;;;16.71;27.50
54556;BME280;57291;37.520;15.106;2023-03-01T10:14:03;101009.88;;;16.92;26.40
54556;BME280;57291;37.520;15.106;2023-03-01T10:19:23;101004.94;;;17.06;26.10
54556;BME280;57291;37.520;15.106;2023-03-01T10:21:52;101006.94;;;16.58;25.79
54556;BME280;57291;37.520;15.106;2023-03-01T10:24:20;101006.38;;;16.27;26.20
54556;BME280;57291;37.520;15.106;2023-03-01T10:26:55;100997.44;;;16.38;27.98
54556;BME280;57291;37.520;15.106;2023-03-01T10:29:29;100999.41;;;16.85;27.70
54556;BME280;57291;37.520;15.106;2023-03-01T10:31:59;100993.97;;;17.27;28.19
54556;BME280;57291;37.520;15.106;2023-03-01T10:34:30;100981.66;;;17.33;27.91
54556;BME280;57291;37.520;15.106;2023-03-01T10:37:09;100981.88;;;17.28;27.34
54556;BME280;57291;37.520;15.106;2023-03-01T10:39:54;100994.44;;;17.08;26.87
54556;BME280;57291;37.520;15.106;2023-03-01T10:42:29;100978.16;;;17.03;26.05
54556;BME280;57291;37.520;15.106;2023-03-01T10:45:14;100981.09;;;16.59;27.68
54556;BME280;57291;37.520;15.106;2023-03-01T10:47:42;100979.88;;;16.78;27.99
54556;BME280;57291;37.520;15.106;2023-03-01T10:50:21;100970.03;;;16.85;27.52
54556;BME280;57291;37.520;15.106;2023-03-01T10:55:57;100964.44;;;16.64;27.97
54556;BME280;57291;37.520;15.106;2023-03-01T10:58:25;100973.16;;;16.75;28.53
54556;BME280;57291;37.520;15.106;2023-03-01T11:01:00;100973.59;;;16.77;28.59
54556;BME280;57291;37.520;15.106;2023-03-01T11:03:37;100959.31;;;16.54;28.97
54556;BME280;57291;37.520;15.106;2023-03-01T11:06:25;100966.88;;;16.96;28.23
54556;BME280;57291;37.520;15.106;2023-03-01T11:08:53;100960.88;;;17.23;28.21
54556;BME280;57291;37.520;15.106;2023-03-01T11:11:33;100953.38;;;17.53;29.03
54556;BME280;57291;37.520;15.106;2023-03-01T11:14:13;100959.94;;;17.82;27.09
54556;BME280;57291;37.520;15.106;2023-03-01T11:19:29;100952.66;;;17.98;26.91
54556;BME280;57291;37.520;15.106;2023-03-01T11:22:04;100947.03;;;17.95;25.40
54556;BME280;57291;37.520;15.106;2023-03-01T11:24:42;100937.72;;;17.66;25.34
54556;BME280;57291;37.520;15.106;2023-03-01T11:27:24;100938.50;;;17.33;26.59
54556;BME280;57291;37.520;15.106;2023-03-01T11:32:45;100934.63;;;17.34;27.71
54556;BME280;57291;37.520;15.106;2023-03-01T11:35:27;100927.38;;;17.30;27.84
54556;BME280;57291;37.520;15.106;2023-03-01T11:43:36;100931.94;;;17.05;31.17
54556;BME280;57291;37.520;15.106;2023-03-01T11:52:03;100905.75;;;17.07;30.10
54556;BME280;57291;37.520;15.106;2023-03-01T12:06:05;100883.44;;;17.84;31.30
54556;BME280;57291;37.520;15.106;2023-03-01T12:14:34;100872.84;;;17.74;31.95
54556;BME280;57291;37.520;15.106;2023-03-01T12:38:42;100832.22;;;18.28;33.37
54556;BME280;57291;37.520;15.106;2023-03-01T12:47:04;100832.81;;;18.22;33.98
54556;BME280;57291;37.520;15.106;2023-03-01T12:49:45;100818.94;;;18.06;34.37
54556;BME280;57291;37.520;15.106;2023-03-01T12:54:51;100818.81;;;18.02;34.14
54556;BME280;57291;37.520;15.106;2023-03-01T13:03:26;100811.22;;;18.48;34.04
54556;BME280;57291;37.520;15.106;2023-03-01T13:06:08;100804.75;;;18.69;34.12
54556;BME280;57291;37.520;15.106;2023-03-01T13:11:17;100808.13;;;18.50;34.29
54556;BME280;57291;37.520;15.106;2023-03-01T13:13:46;100811.84;;;18.30;34.92
54556;BME280;57291;37.520;15.106;2023-03-01T13:16:40;100802.75;;;18.29;34.91
54556;BME280;57291;37.520;15.106;2023-03-01T13:19:17;100803.91;;;18.28;35.32
54556;BME280;57291;37.520;15.106;2023-03-01T13:21:46;100805.72;;;17.75;35.91
54556;BME280;57291;37.520;15.106;2023-03-01T13:24:27;100802.19;;;17.87;36.17
54556;BME280;57291;37.520;15.106;2023-03-01T13:29:49;100797.50;;;17.99;35.92
54556;BME280;57291;37.520;15.106;2023-03-01T13:32:25;100799.44;;;17.99;35.96
54556;BME280;57291;37.520;15.106;2023-03-01T13:35:40;100802.56;;;17.97;36.67
54556;BME280;57291;37.520;15.106;2023-03-01T13:41:08;100790.28;;;18.32;36.34
54556;BME280;57291;37.520;15.106;2023-03-01T13:43:36;100790.38;;;18.47;36.46
54556;BME280;57291;37.520;15.106;2023-03-01T13:46:24;100788.88;;;18.38;35.82
54556;BME280;57291;37.520;15.106;2023-03-01T13:48:54;100791.09;;;18.20;36.74
54556;BME280;57291;37.520;15.106;2023-03-01T13:51:26;100791.78;;;17.92;37.33
54556;BME280;57291;37.520;15.106;2023-03-01T13:53:55;100795.00;;;18.07;37.57
54556;BME280;57291;37.520;15.106;2023-03-01T13:56:27;100790.84;;;18.25;37.60
54556;BME280;57291;37.520;15.106;2023-03-01T13:59:05;100797.03;;;18.46;36.72
54556;BME280;57291;37.520;15.106;2023-03-01T14:01:35;100794.00;;;18.64;37.19
54556;BME280;57291;37.520;15.106;2023-03-01T14:04:17;100801.91;;;18.78;36.89
54556;BME280;57291;37.520;15.106;2023-03-01T14:06:46;100798.75;;;18.91;36.91
54556;BME280;57291;37.520;15.106;2023-03-01T14:09:17;100791.81;;;19.10;36.84
54556;BME280;57291;37.520;15.106;2023-03-01T14:15:02;100793.00;;;18.96;36.69
54556;BME280;57291;37.520;15.106;2023-03-01T14:20:00;100793.19;;;18.63;36.76
54556;BME280;57291;37.520;15.106;2023-03-01T14:22:34;100787.25;;;18.49;35.00
54556;BME280;57291;37.520;15.106;2023-03-01T14:25:06;100794.03;;;18.51;34.62
54556;BME280;57291;37.520;15.106;2023-03-01T14:27:44;100792.44;;;18.38;35.29
54556;BME280;57291;37.520;15.106;2023-03-01T14:30:15;100790.16;;;18.28;35.98
54556;BME280;57291;37.520;15.106;2023-03-01T14:33:04;100786.97;;;18.01;36.51
54556;BME280;57291;37.520;15.106;2023-03-01T14:35:35;100778.72;;;17.89;35.97
54556;BME280;57291;37.520;15.106;2023-03-01T14:38:03;100796.13;;;18.05;34.97
54556;BME280;57291;37.520;15.106;2023-03-01T14:40:34;100792.13;;;17.91;33.79
54556;BME280;57291;37.520;15.106;2023-03-01T14:43:09;100805.75;;;17.87;37.48
54556;BME280;57291;37.520;15.106;2023-03-01T14:45:38;100800.28;;;17.42;44.38
54556;BME280;57291;37.520;15.106;2023-03-01T14:48:07;100795.19;;;16.98;45.50